Time;durP1;ratioP1;P1;durP2;ratioP2;P2;SDS_P1;SDS_P2;PMS_P1;PMS_P2;Temp;Humidity;BMP_temperature;BMP_pressure;BME280_temperature;BME280_humidity;BME280_pressure;Samples;Min_cycle;Max_cycle;Signal;HPM_P1;HPM_P2
2022/01/26 00:06:37;;;;;;;87.93;35.30;;;;;;;-3.54;44.62;95794.69;4896552;29;20095;-78
2022/01/26 00:09:04;;;;;;;89.05;37.47;;;;;;;-3.60;44.90;95799.44;4879846;29;20068;-77
2022/01/26 00:11:32;;;;;;;59.83;26.85;;;;;;;-3.60;44.21;95790.06;4895516;29;20112;-77
2022/01/26 00:13:59;;;;;;;102.65;39.90;;;;;;;-3.69;45.64;95786.53;4877392;29;20052;-78
2022/01/26 00:16:27;;;;;;;68.20;28.42;;;;;;;-3.59;44.54;95783.25;4871757;29;20124;-77
2022/01/26 00:18:57;;;;;;;80.25;29.55;;;;;;;-3.56;44.79;95780.47;4880132;29;20044;-77
2022/01/26 00:21:31;;;;;;;139.70;46.70;;;;;;;-3.71;45.41;95778.22;4879636;29;20040;-77
2022/01/26 00:26:36;;;;;;;77.72;33.35;;;;;;;-3.68;44.72;95780.50;4879737;29;20044;-78
2022/01/26 00:29:13;;;;;;;61.00;29.42;;;;;;;-3.79;44.85;95780.53;4881497;29;20049;-78
2022/01/26 00:40:02;;;;;;;86.78;39.83;;;;;;;-3.95;45.40;95775.03;4881607;29;20147;-77
2022/01/26 00:42:34;;;;;;;81.15;31.95;;;;;;;-4.01;46.40;95773.00;4896544;29;20128;-78
2022/01/26 00:44:59;;;;;;;86.63;32.28;;;;;;;-4.03;46.58;95773.09;4899116;29;20033;-78
2022/01/26 00:47:25;;;;;;;43.42;20.60;;;;;;;-3.98;46.13;95775.28;4906084;29;20044;-78
2022/01/26 00:49:55;;;;;;;38.72;17.70;;;;;;;-3.94;45.06;95776.66;4885551;29;20040;-76
2022/01/26 00:52:28;;;;;;;39.80;18.55;;;;;;;-3.99;45.44;95774.47;4896421;29;20033;-78
2022/01/26 00:54:54;;;;;;;41.63;17.75;;;;;;;-3.89;44.96;95769.50;4896188;29;20056;-78
2022/01/26 00:57:20;;;;;;;31.98;16.48;;;;;;;-3.88;45.48;95775.38;4880825;29;20047;-78
2022/01/26 00:59:45;;;;;;;105.70;29.35;;;;;;;-3.83;45.03;95769.00;4895490;29;20495;-78
2022/01/26 01:02:11;;;;;;;74.53;26.70;;;;;;;-3.88;45.99;95766.03;4895346;29;20028;-78
2022/01/26 01:04:36;;;;;;;67.07;24.83;;;;;;;-3.85;45.35;95765.78;4894116;29;20108;-78
2022/01/26 01:07:04;;;;;;;42.55;18.13;;;;;;;-3.81;46.23;95767.16;4895611;29;20497;-78
2022/01/26 01:09:33;;;;;;;52.45;20.38;;;;;;;-3.71;45.11;95757.88;4894725;29;20043;-78
2022/01/26 01:11:59;;;;;;;24.02;15.07;;;;;;;-3.67;44.87;95759.25;4895785;29;20119;-78
2022/01/26 01:14:24;;;;;;;33.20;14.32;;;;;;;-3.74;45.84;95763.22;4879279;29;20040;-78
2022/01/26 01:16:52;;;;;;;27.35;15.38;;;;;;;-3.68;45.37;95761.91;4895817;29;20037;-78
2022/01/26 01:19:36;;;;;;;31.85;17.77;;;;;;;-3.66;45.15;95760.06;4895378;29;20064;-78
2022/01/26 01:22:28;;;;;;;37.70;19.65;;;;;;;-3.80;45.86;95757.78;4891898;29;20505;-77
2022/01/26 01:33:04;;;;;;;51.65;23.95;;;;;;;-3.97;45.05;95756.56;4894456;29;20041;-78
2022/01/26 01:35:31;;;;;;;60.08;24.52;;;;;;;-3.93;45.70;95755.41;4891461;29;20048;-78
2022/01/26 01:37:58;;;;;;;56.75;25.92;;;;;;;-4.03;45.49;95751.97;4878918;29;20068;-77
2022/01/26 01:40:23;;;;;;;57.50;25.95;;;;;;;-4.06;45.52;95749.69;4901360;29;20056;-77
2022/01/26 01:42:49;;;;;;;54.17;26.23;;;;;;;-4.06;45.32;95737.78;4894414;29;20122;-78
2022/01/26 01:45:14;;;;;;;60.63;24.23;;;;;;;-4.03;46.28;95746.91;4894264;29;20092;-78
2022/01/26 01:47:40;;;;;;;51.70;23.77;;;;;;;-4.03;45.57;95742.63;4878672;29;20922;-78
2022/01/26 01:50:10;;;;;;;47.40;24.70;;;;;;;-4.04;46.20;95741.00;4893311;29;20032;-77
2022/01/26 01:52:36;;;;;;;55.17;24.83;;;;;;;-4.02;45.67;95749.31;4892374;29;20037;-78
2022/01/26 01:55:04;;;;;;;49.15;26.35;;;;;;;-4.01;45.98;95747.59;4878292;29;20059;-78
2022/01/26 01:57:30;;;;;;;57.17;26.13;;;;;;;-4.06;46.76;95731.91;4878731;29;20052;-78
2022/01/26 01:59:55;;;;;;;50.40;25.27;;;;;;;-4.00;45.77;95732.22;4879352;29;20028;-78
2022/01/26 02:02:21;;;;;;;69.88;27.08;;;;;;;-3.99;46.84;95731.28;4871918;29;20073;-78
2022/01/26 02:04:46;;;;;;;52.42;24.25;;;;;;;-4.03;47.57;95727.38;4893425;29;20040;-78
2022/01/26 02:07:12;;;;;;;56.13;25.85;;;;;;;-4.04;47.10;95728.31;4894813;29;20063;-78
2022/01/26 02:09:37;;;;;;;58.88;25.50;;;;;;;-4.10;47.88;95725.44;4894873;29;20983;-78
2022/01/26 02:12:11;;;;;;;60.45;27.17;;;;;;;-4.07;48.39;95725.19;4893256;29;20040;-77
2022/01/26 02:14:42;;;;;;;55.05;26.67;;;;;;;-4.04;48.42;95725.78;4893154;29;20072;-78
2022/01/26 02:17:24;;;;;;;52.92;25.45;;;;;;;-3.95;47.22;95719.97;4893100;29;20029;-78
2022/01/26 02:52:52;;;;;;;52.35;24.98;;;;;;;-3.19;47.56;95702.03;4895467;29;20171;-77
2022/01/26 03:01:20;;;;;;;52.22;24.55;;;;;;;-3.24;48.88;95704.97;4880104;29;20032;-76
2022/01/26 03:03:26;;;;;;;48.25;24.35;;;;;;;-3.23;48.30;95709.13;4900454;29;20048;-76
2022/01/26 03:06:00;;;;;;;40.13;18.15;;;;;;;-3.18;47.05;95699.38;4895499;29;20041;-76
2022/01/26 03:08:33;;;;;;;40.67;21.98;;;;;;;-3.16;46.97;95701.78;4895973;29;20036;-77
2022/01/26 03:11:05;;;;;;;;;;;;;;;-3.04;47.31;95705.88;4896988;29;20040;-77
2022/01/26 03:13:33;;;;;;;31.00;17.47;;;;;;;-2.98;47.24;95705.34;4895935;29;19924;-77
2022/01/26 03:16:06;;;;;;;26.95;13.75;;;;;;;-2.86;46.07;95706.88;4895731;29;20281;-77
2022/01/26 03:21:02;;;;;;;28.27;16.02;;;;;;;-2.68;44.96;95704.53;4894923;29;20076;-77
2022/01/26 03:36:18;;;;;;;46.63;22.27;;;;;;;-2.54;47.52;95699.09;4896808;29;20555;-77
2022/01/26 03:38:47;;;;;;;39.33;21.58;;;;;;;-2.63;48.59;95689.69;4879877;29;20032;-77
2022/01/26 03:41:28;;;;;;;38.92;19.77;;;;;;;-2.56;47.96;95695.88;4902665;29;20041;-77
2022/01/26 03:43:53;;;;;;;32.40;18.05;;;;;;;-2.45;46.67;95698.31;4882034;29;20040;-77
2022/01/26 03:46:18;;;;;;;38.30;17.60;;;;;;;-2.43;46.64;95691.38;4895520;29;20568;-77
2022/01/26 03:48:44;;;;;;;34.05;18.38;;;;;;;-2.43;46.85;95696.47;4895212;29;20036;-78
2022/01/26 03:51:09;;;;;;;42.50;20.90;;;;;;;-2.30;46.29;95695.41;4895230;29;20036;-78
2022/01/26 03:53:35;;;;;;;40.38;19.00;;;;;;;-2.30;46.39;95690.31;4896008;29;20542;-78
2022/01/26 03:56:00;;;;;;;44.50;21.95;;;;;;;-2.18;45.76;95686.72;4895823;29;20115;-78
2022/01/26 03:58:26;;;;;;;43.65;20.38;;;;;;;-2.23;45.39;95686.31;4881641;29;20045;-78
2022/01/26 04:00:51;;;;;;;61.10;21.25;;;;;;;-2.12;45.65;95688.72;4896077;29;20045;-78
2022/01/26 04:03:17;;;;;;;47.08;19.15;;;;;;;-2.12;45.16;95678.53;4896670;29;20033;-78
2022/01/26 04:05:43;;;;;;;27.50;14.50;;;;;;;-2.07;44.75;95681.50;4897806;29;20596;-78
2022/01/26 04:08:15;;;;;;;36.42;16.25;;;;;;;-2.04;44.58;95680.44;4880052;29;20149;-78
2022/01/26 04:13:24;;;;;;;27.00;14.85;;;;;;;-2.05;44.78;95674.53;4896643;29;20056;-75
2022/01/26 04:15:50;;;;;;;31.65;16.10;;;;;;;-2.03;44.70;95672.66;4895416;29;20033;-80
2022/01/26 04:18:21;;;;;;;54.22;22.67;;;;;;;-1.97;44.90;95666.19;4896860;29;20045;-80
2022/01/26 04:20:50;;;;;;;61.40;26.63;;;;;;;-2.02;44.90;95663.25;4882601;29;20500;-81
2022/01/26 04:25:54;;;;;;;41.33;19.63;;;;;;;-2.01;44.83;95664.88;4899795;29;20079;-79
2022/01/26 04:28:27;;;;;;;24.35;14.45;;;;;;;-1.99;44.50;95666.34;4908815;29;20131;-80
2022/01/26 04:30:52;;;;;;;;;;;;;;;-1.95;45.08;95664.34;4912600;29;20120;-78
2022/01/26 04:33:17;;;;;;;27.85;15.90;;;;;;;-1.99;45.01;95673.97;4911539;29;20375;-81
2022/01/26 04:35:46;;;;;;;28.42;15.27;;;;;;;-1.97;44.74;95667.00;4898008;29;20044;-85
2022/01/26 04:38:23;;;;;;;30.38;14.55;;;;;;;-1.90;44.77;95663.00;4899768;29;20046;-82
2022/01/26 04:41:24;;;;;;;30.63;14.75;;;;;;;-1.82;44.29;95660.56;4897869;29;20060;-81
2022/01/26 04:43:38;;;;;;;52.70;20.50;;;;;;;-1.83;45.00;95665.81;4899497;29;20048;-79
2022/01/26 04:46:05;;;;;;;46.80;19.33;;;;;;;-1.78;44.88;95667.97;4897787;29;20037;-81
2022/01/26 04:48:31;;;;;;;26.83;14.90;;;;;;;-1.76;44.52;95663.53;4882773;29;20067;-81
2022/01/26 04:50:56;;;;;;;29.23;17.10;;;;;;;-1.74;44.88;95662.47;4894252;29;20036;-80
2022/01/26 04:53:22;;;;;;;32.10;16.48;;;;;;;-1.65;44.22;95671.03;4903841;29;20489;-81
2022/01/26 04:55:47;;;;;;;30.98;16.38;;;;;;;-1.62;43.89;95663.13;4912054;29;20051;-79
2022/01/26 04:58:13;;;;;;;43.00;20.40;;;;;;;-1.59;43.89;95663.66;4896578;29;20040;-77
2022/01/26 05:00:38;;;;;;;58.25;27.60;;;;;;;-1.60;44.41;95666.34;4904177;29;20032;-79
2022/01/26 05:03:04;;;;;;;59.60;26.20;;;;;;;-1.54;44.33;95664.03;4909086;29;20493;-80
2022/01/26 05:05:29;;;;;;;41.65;19.52;;;;;;;-1.52;44.11;95658.81;4921583;29;20184;-82
2022/01/26 05:07:55;;;;;;;29.00;16.02;;;;;;;-1.51;43.72;95657.84;4880140;29;20104;-79
2022/01/26 05:10:21;;;;;;;26.88;13.65;;;;;;;-1.50;43.49;95667.13;4897525;29;20043;-80
2022/01/26 05:12:46;;;;;;;29.35;14.57;;;;;;;-1.55;43.82;95671.84;4878237;29;20171;-80
2022/01/26 05:15:12;;;;;;;29.38;15.40;;;;;;;-1.60;43.86;95663.78;4896601;29;20159;-80
2022/01/26 05:17:38;;;;;;;30.30;14.43;;;;;;;-1.65;43.94;95665.91;4880930;29;20029;-79
2022/01/26 05:20:09;;;;;;;27.98;15.20;;;;;;;-1.71;43.95;95661.38;4881620;29;20433;-80
2022/01/26 05:22:40;;;;;;;28.20;15.00;;;;;;;-1.75;43.92;95665.16;4881855;29;20413;-79
2022/01/26 05:25:05;;;;;;;26.23;14.68;;;;;;;-1.78;44.29;95666.22;4882654;29;20124;-78
2022/01/26 05:27:31;;;;;;;31.27;16.27;;;;;;;-1.79;44.40;95663.78;4881349;29;20397;-79
2022/01/26 05:29:56;;;;;;;39.25;19.20;;;;;;;-1.72;44.62;95668.22;4879792;29;20108;-77
2022/01/26 05:32:22;;;;;;;60.78;26.23;;;;;;;-1.65;44.85;95665.91;4879016;29;20044;-77
2022/01/26 05:34:47;;;;;;;65.75;30.92;;;;;;;-1.58;44.11;95659.34;4878946;29;20029;-78
2022/01/26 05:37:13;;;;;;;51.80;24.77;;;;;;;-1.60;44.07;95658.69;4895597;29;20048;-79
2022/01/26 05:39:39;;;;;;;44.22;22.50;;;;;;;-1.58;44.23;95661.91;4903271;29;20052;-79
2022/01/26 05:42:06;;;;;;;53.75;22.95;;;;;;;-1.55;44.36;95654.78;4895507;29;20082;-79
2022/01/26 05:44:31;;;;;;;56.40;27.45;;;;;;;-1.51;44.79;95648.47;4880498;29;20037;-79
2022/01/26 05:46:58;;;;;;;62.15;27.40;;;;;;;-1.43;44.93;95649.53;4893676;23;20094;-78
2022/01/26 05:49:24;;;;;;;65.55;25.73;;;;;;;-1.40;45.06;95652.59;4934399;29;20031;-79
2022/01/26 05:51:50;;;;;;;72.43;28.23;;;;;;;-1.35;44.88;95647.09;4933628;29;20058;-79
2022/01/26 05:54:16;;;;;;;88.65;35.92;;;;;;;-1.30;44.85;95658.50;4934968;29;20492;-79
2022/01/26 05:56:42;;;;;;;71.00;30.67;;;;;;;-1.28;45.02;95656.63;4925942;29;20507;-78
2022/01/26 05:59:08;;;;;;;64.43;28.17;;;;;;;-1.28;45.34;95643.84;4935179;29;20063;-78
2022/01/26 06:01:34;;;;;;;73.30;31.88;;;;;;;-1.27;45.77;95650.56;4933537;29;20035;-79
2022/01/26 06:04:00;;;;;;;68.82;34.08;;;;;;;-1.22;45.39;95650.94;4933685;29;20089;-78
2022/01/26 06:06:25;;;;;;;67.72;29.10;;;;;;;-1.22;45.70;95652.69;4933969;29;20136;-79
2022/01/26 06:08:51;;;;;;;58.38;26.58;;;;;;;-1.24;45.60;95650.28;4932281;29;20043;-78
2022/01/26 06:11:16;;;;;;;50.25;24.02;;;;;;;-1.27;45.82;95663.31;4916618;29;20036;-79
2022/01/26 06:13:41;;;;;;;35.42;20.70;;;;;;;-1.25;46.12;95658.09;4916705;29;20522;-78
2022/01/26 06:16:07;;;;;;;41.83;21.50;;;;;;;-1.21;45.97;95659.41;4922881;29;20087;-78
2022/01/26 06:18:33;;;;;;;83.95;34.72;;;;;;;-1.13;46.47;95653.63;4930876;29;20443;-78
2022/01/26 06:20:58;;;;;;;45.92;22.08;;;;;;;-1.11;46.01;95654.28;4932791;29;20067;-78
2022/01/26 06:23:27;;;;;;;75.47;33.50;;;;;;;-1.10;46.30;95651.59;4932808;29;20035;-78
2022/01/26 06:25:54;;;;;;;87.10;37.13;;;;;;;-1.09;46.46;95648.09;4933221;29;20406;-78
2022/01/26 06:28:20;;;;;;;51.13;23.27;;;;;;;-1.12;46.89;95655.22;4917508;29;20039;-78
2022/01/26 06:30:46;;;;;;;68.95;27.80;;;;;;;-1.10;47.20;95650.78;4932174;29;20036;-78
2022/01/26 06:33:12;;;;;;;65.78;29.88;;;;;;;-1.11;47.25;95646.63;4931998;29;20113;-78
2022/01/26 06:35:37;;;;;;;59.97;23.75;;;;;;;-1.08;47.06;95644.59;4916525;29;20055;-78
2022/01/26 06:38:03;;;;;;;67.65;30.50;;;;;;;-1.10;47.48;95641.38;4916348;29;20032;-78
2022/01/26 06:40:28;;;;;;;59.30;28.23;;;;;;;-1.01;47.60;95640.53;4933107;29;20126;-79
2022/01/26 06:42:58;;;;;;;63.00;30.85;;;;;;;-1.03;47.36;95646.72;4915716;29;20547;-78
2022/01/26 06:45:27;;;;;;;57.47;29.77;;;;;;;-1.01;47.96;95652.50;4916569;29;20106;-78
2022/01/26 06:50:36;;;;;;;76.00;36.25;;;;;;;-0.88;48.06;95650.44;4931115;29;20578;-79
2022/01/26 06:53:01;;;;;;;78.57;34.90;;;;;;;-0.84;48.17;95654.31;4932200;29;20031;-79
2022/01/26 06:55:27;;;;;;;50.67;23.42;;;;;;;-0.84;48.21;95654.31;4918327;29;20508;-78
2022/01/26 06:57:52;;;;;;;51.38;26.58;;;;;;;-0.74;48.60;95667.84;4933026;29;20431;-79
2022/01/26 07:00:18;;;;;;;56.97;28.88;;;;;;;-0.72;49.00;95670.25;4934249;29;20040;-79
2022/01/26 07:02:44;;;;;;;52.65;26.20;;;;;;;-0.72;49.21;95671.06;4937881;29;20027;-83
2022/01/26 07:05:10;;;;;;;63.90;31.38;;;;;;;-0.64;48.77;95657.59;4930932;29;20488;-82
2022/01/26 07:07:35;;;;;;;71.43;32.72;;;;;;;-0.53;48.98;95669.34;4922997;29;20035;-82
2022/01/26 07:10:01;;;;;;;53.67;26.48;;;;;;;-0.45;49.05;95649.81;4921846;29;20103;-82
2022/01/26 07:12:27;;;;;;;51.90;26.38;;;;;;;-0.33;49.32;95660.63;4939215;29;20050;-82
2022/01/26 07:23:15;;;;;;;48.85;23.90;;;;;;;-0.48;50.12;95655.22;4926211;29;20036;-82
2022/01/26 07:25:40;;;;;;;73.85;34.30;;;;;;;-0.48;50.50;95654.44;4939698;29;20066;-82
2022/01/26 07:28:06;;;;;;;52.05;24.27;;;;;;;-0.53;50.27;95659.13;4939997;29;20476;-81
2022/01/26 07:30:32;;;;;;;50.58;25.00;;;;;;;-0.54;50.36;95654.97;4897770;29;20035;-80
2022/01/26 07:32:57;;;;;;;63.22;28.98;;;;;;;-0.64;50.68;95658.41;4939902;29;20096;-81
2022/01/26 07:35:23;;;;;;;43.42;19.25;;;;;;;-0.72;50.98;95660.03;4939991;29;20032;-80
2022/01/26 07:37:50;;;;;;;34.72;18.80;;;;;;;-0.71;51.20;95671.88;4924113;29;20036;-78
2022/01/26 07:40:16;;;;;;;40.28;21.00;;;;;;;-0.66;51.60;95665.38;4940293;29;20051;-78
2022/01/26 07:42:41;;;;;;;51.45;22.23;;;;;;;-0.57;51.16;95657.81;4941359;29;20039;-79
2022/01/26 07:45:09;;;;;;;37.55;17.38;;;;;;;-0.49;51.11;95655.34;4926304;29;20039;-80
2022/01/26 07:47:36;;;;;;;31.50;14.88;;;;;;;-0.64;52.13;95657.59;4915840;29;20412;-79
2022/01/26 07:50:04;;;;;;;31.73;17.70;;;;;;;-0.71;52.70;95659.91;4942732;29;20031;-80
2022/01/26 07:52:34;;;;;;;52.00;23.63;;;;;;;-0.69;52.86;95660.56;4925730;29;20519;-81
2022/01/26 07:55:00;;;;;;;51.90;24.15;;;;;;;-0.65;52.62;95656.00;4942177;29;20043;-80
2022/01/26 07:57:26;;;;;;;48.50;25.38;;;;;;;-0.71;53.31;95657.34;4924121;29;20050;-79
2022/01/26 07:59:53;;;;;;;40.42;21.00;;;;;;;-0.71;53.54;95651.44;4942214;29;20032;-80
2022/01/26 08:02:20;;;;;;;37.33;17.35;;;;;;;-0.77;54.03;95652.00;4928488;29;20043;-81
2022/01/26 08:04:45;;;;;;;24.75;13.80;;;;;;;-0.79;54.38;95648.78;4922714;29;20027;-81
2022/01/26 08:07:12;;;;;;;37.80;17.92;;;;;;;-0.85;54.93;95650.16;4930938;29;20043;-80
2022/01/26 08:09:43;;;;;;;42.15;19.45;;;;;;;-0.95;55.49;95654.50;4949796;29;20040;-80
2022/01/26 08:12:09;;;;;;;27.58;15.57;;;;;;;-0.89;54.98;95653.13;4928771;29;20020;-80
2022/01/26 08:14:34;;;;;;;39.28;17.02;;;;;;;-0.95;55.56;95647.66;4946274;29;20036;-81
2022/01/26 08:17:00;;;;;;;37.30;17.15;;;;;;;-1.02;55.54;95643.22;4945030;29;20016;-81
2022/01/26 08:19:25;;;;;;;37.20;17.35;;;;;;;-0.99;56.38;95653.16;4913460;29;20036;-80
2022/01/26 08:21:51;;;;;;;24.30;13.63;;;;;;;-1.11;56.65;95654.28;4903546;29;20574;-80
2022/01/26 08:24:16;;;;;;;25.63;15.00;;;;;;;-1.19;56.98;95646.50;4945298;29;20035;-80
2022/01/26 08:26:48;;;;;;;37.83;16.92;;;;;;;-1.29;57.26;95646.56;4933630;29;20515;-80
2022/01/26 08:29:22;;;;;;;37.75;18.17;;;;;;;-1.28;57.73;95648.97;4948239;29;20035;-80
2022/01/26 08:31:48;;;;;;;35.97;19.10;;;;;;;-1.21;57.40;95654.31;4927864;29;20067;-80
2022/01/26 08:34:13;;;;;;;39.45;17.27;;;;;;;-1.10;57.29;95655.91;4899999;29;20036;-80
2022/01/26 08:36:45;;;;;;;34.70;17.65;;;;;;;-1.01;57.22;95657.59;4937126;29;20039;-79
2022/01/26 08:39:10;;;;;;;38.10;15.32;;;;;;;-0.98;57.17;95664.97;4920340;29;20035;-80
2022/01/26 08:41:36;;;;;;;24.75;14.75;;;;;;;-0.89;57.31;95661.59;4926297;29;20534;-79
2022/01/26 08:44:01;;;;;;;26.98;14.07;;;;;;;-0.75;56.38;95668.00;4940772;29;20024;-79
2022/01/26 08:46:27;;;;;;;28.70;14.52;;;;;;;-0.70;56.62;95669.16;4941821;29;20031;-80
2022/01/26 08:48:52;;;;;;;38.60;19.60;;;;;;;-0.57;56.47;95670.59;4923916;29;20031;-80
2022/01/26 08:51:18;;;;;;;44.10;19.92;;;;;;;-0.50;56.59;95674.16;4940725;29;20039;-80
2022/01/26 08:53:44;;;;;;;40.83;20.13;;;;;;;-0.43;55.84;95677.78;4927747;29;20047;-80
2022/01/26 08:56:10;;;;;;;32.08;17.42;;;;;;;-0.47;55.94;95676.47;4944477;29;20036;-80
2022/01/26 08:58:35;;;;;;;51.28;25.50;;;;;;;-0.43;56.35;95670.94;4942354;29;20047;-81
2022/01/26 09:03:36;;;;;;;37.42;20.27;;;;;;;-0.33;56.46;95675.97;4952437;23;20047;-81
2022/01/26 09:06:01;;;;;;;47.58;25.20;;;;;;;-0.15;56.02;95676.00;4943408;29;20040;-81
2022/01/26 09:08:27;;;;;;;37.90;18.48;;;;;;;0.04;55.19;95672.53;4943514;29;20079;-81
2022/01/26 09:10:57;;;;;;;37.10;18.48;;;;;;;0.19;54.77;95676.19;4932126;29;20023;-81
2022/01/26 09:13:22;;;;;;;36.95;17.17;;;;;;;0.23;54.53;95672.38;4918649;29;20031;-81
2022/01/26 09:15:48;;;;;;;35.45;19.05;;;;;;;0.26;54.48;95679.75;4943299;29;20051;-81
2022/01/26 09:18:30;;;;;;;44.92;23.33;;;;;;;0.26;54.51;95682.28;4942894;29;20035;-81
2022/01/26 09:20:55;;;;;;;25.80;15.38;;;;;;;0.28;54.85;95680.41;4942716;29;20028;-81
2022/01/26 09:23:21;;;;;;;30.15;14.60;;;;;;;0.20;55.01;95685.44;4937975;29;20099;-81
2022/01/26 09:25:47;;;;;;;22.92;13.50;;;;;;;0.25;55.05;95673.81;4943534;29;20126;-81
2022/01/26 09:28:13;;;;;;;27.85;16.27;;;;;;;0.33;54.91;95683.34;4944393;29;20034;-81
2022/01/26 09:30:38;;;;;;;36.28;17.75;;;;;;;0.42;54.12;95677.31;4944664;29;20039;-81
2022/01/26 09:33:04;;;;;;;22.02;14.00;;;;;;;0.48;53.92;95669.03;4924875;29;20047;-81
2022/01/26 09:35:30;;;;;;;40.10;20.48;;;;;;;0.59;53.50;95668.81;4925813;29;20039;-81
2022/01/26 09:37:55;;;;;;;40.30;19.52;;;;;;;0.72;54.04;95659.94;4943545;29;20036;-81
2022/01/26 09:40:20;;;;;;;41.38;22.73;;;;;;;0.81;53.38;95662.41;4943923;29;20044;-81
2022/01/26 09:42:46;;;;;;;41.97;23.80;;;;;;;0.99;53.19;95654.69;4943591;29;20039;-81
2022/01/26 09:45:12;;;;;;;33.72;18.92;;;;;;;1.15;52.52;95651.41;4925496;29;20024;-80
2022/01/26 09:47:38;;;;;;;34.13;18.95;;;;;;;1.30;51.97;95651.59;4926660;29;20035;-81
2022/01/26 09:50:04;;;;;;;29.38;16.05;;;;;;;1.36;51.66;95643.31;4943329;29;20031;-80
2022/01/26 09:52:35;;;;;;;22.23;13.38;;;;;;;1.36;52.42;95648.44;4942947;29;20100;-81
2022/01/26 09:55:01;;;;;;;24.42;14.25;;;;;;;1.43;51.92;95646.84;4946189;29;20028;-80
2022/01/26 09:57:27;;;;;;;30.90;15.40;;;;;;;1.52;52.51;95640.00;4935571;29;20059;-80
2022/01/26 09:59:53;;;;;;;37.47;18.90;;;;;;;1.64;51.42;95634.44;4951668;28;20028;-80
2022/01/26 10:02:24;;;;;;;31.52;16.80;;;;;;;1.79;51.17;95642.34;4926205;29;20042;-80
2022/01/26 10:04:54;;;;;;;24.90;14.35;;;;;;;1.70;51.67;95648.38;4910493;29;20516;-82
2022/01/26 10:07:27;;;;;;;27.73;13.65;;;;;;;1.63;51.51;95640.53;4931497;29;20407;-82
2022/01/26 10:20:27;;;;;;;46.70;22.58;;;;;;;1.65;52.49;95642.94;5180569;23;20053;-81
2022/01/26 10:22:52;;;;;;;49.97;23.75;;;;;;;1.66;52.25;95636.84;4958626;29;20035;-80
2022/01/26 10:25:24;;;;;;;61.67;24.42;;;;;;;1.73;52.24;95636.06;4949159;29;20035;-84
2022/01/26 10:27:50;;;;;;;51.55;21.80;;;;;;;1.77;51.96;95634.78;4947115;29;20071;-81
2022/01/26 10:30:17;;;;;;;52.15;23.10;;;;;;;1.82;52.17;95636.09;4952639;29;20035;-82
2022/01/26 10:32:45;;;;;;;83.13;32.17;;;;;;;1.86;52.90;95624.53;4952158;29;20484;-80
2022/01/26 10:35:10;;;;;;;31.45;15.10;;;;;;;1.86;52.55;95632.25;5522370;23;20067;-80
2022/01/26 10:37:39;;;;;;;36.55;17.42;;;;;;;1.73;53.73;95623.22;4935563;29;20028;-81
2022/01/26 10:40:17;;;;;;;35.30;17.60;;;;;;;1.59;54.13;95620.47;4898983;29;20089;-82
2022/01/26 10:42:55;;;;;;;50.33;24.05;;;;;;;1.52;53.94;95620.31;4908359;29;20429;-82
2022/01/26 10:45:36;;;;;;;36.13;19.30;;;;;;;1.52;54.81;95625.44;4907437;29;20040;-82
2022/01/26 10:48:16;;;;;;;53.10;23.88;;;;;;;1.60;54.61;95617.75;4890695;29;20037;-82
2022/01/26 10:53:17;;;;;;;52.88;27.02;;;;;;;1.51;55.03;95618.69;4906892;29;20047;-82
2022/01/26 10:55:43;;;;;;;34.45;18.05;;;;;;;1.52;55.28;95615.19;4918230;23;20022;-82
2022/01/26 10:58:08;;;;;;;44.65;22.15;;;;;;;1.60;55.04;95619.50;4955420;28;20574;-82
2022/01/26 11:00:38;;;;;;;55.50;25.88;;;;;;;1.62;54.67;95610.69;4957514;29;20124;-83
2022/01/26 11:03:05;;;;;;;63.13;27.55;;;;;;;1.68;54.92;95609.28;4929041;29;20116;-84
2022/01/26 11:05:33;;;;;;;40.13;21.73;;;;;;;1.76;55.29;95607.53;4958592;28;20032;-82
2022/01/26 11:07:59;;;;;;;53.03;25.83;;;;;;;1.85;54.82;95620.38;4960954;28;20023;-82
2022/01/26 11:10:35;;;;;;;109.95;41.63;;;;;;;2.05;54.20;95609.66;4962400;28;20050;-82
2022/01/26 11:13:01;;;;;;;54.75;24.58;;;;;;;2.19;53.63;95603.09;4941080;29;20027;-82
2022/01/26 11:15:26;;;;;;;45.67;23.13;;;;;;;2.33;53.17;95610.16;4962521;23;20075;-82
2022/01/26 11:17:51;;;;;;;33.97;18.58;;;;;;;2.17;54.10;95609.34;4959172;29;20031;-82
2022/01/26 11:20:19;;;;;;;43.33;23.85;;;;;;;2.11;53.75;95600.50;4962617;28;20047;-82
2022/01/26 11:22:52;;;;;;;49.90;27.27;;;;;;;2.13;54.15;95598.63;4943886;29;20031;-82
2022/01/26 11:25:17;;;;;;;64.72;29.58;;;;;;;2.18;54.40;95601.50;4955414;29;20117;-82
2022/01/26 11:27:43;;;;;;;22.02;12.45;;;;;;;2.09;53.76;95587.03;4956839;29;20504;-82
2022/01/26 11:30:28;;;;;;;22.38;12.60;;;;;;;2.03;53.55;95597.94;4957279;28;20027;-82
2022/01/26 11:32:58;;;;;;;31.25;15.95;;;;;;;2.00;54.54;95593.94;4944750;29;20036;-81
2022/01/26 11:35:28;;;;;;;33.67;17.35;;;;;;;1.90;54.53;95589.91;4956784;29;20050;-81
2022/01/26 11:38:17;;;;;;;41.67;16.95;;;;;;;2.00;54.78;95595.72;4960062;29;20038;-81
2022/01/26 11:46:23;;;;;;;36.53;17.00;;;;;;;2.13;54.83;95583.22;4956997;29;20601;-81
2022/01/26 11:49:11;;;;;;;43.42;24.23;;;;;;;2.18;54.47;95575.03;4955655;29;20039;-82
2022/01/26 11:51:50;;;;;;;43.47;21.15;;;;;;;2.16;55.49;95577.75;4958497;28;20054;-82
2022/01/26 11:54:23;;;;;;;31.90;16.15;;;;;;;2.03;55.04;95583.38;4957564;29;20027;-82
2022/01/26 11:57:03;;;;;;;30.77;16.58;;;;;;;1.95;55.82;95590.25;4940377;29;20035;-82
2022/01/26 11:59:32;;;;;;;90.95;41.65;;;;;;;1.92;56.46;95586.22;4973871;28;20094;-82
2022/01/26 12:02:05;;;;;;;67.47;31.42;;;;;;;1.95;56.21;95575.69;4939423;29;20027;-81
2022/01/26 12:04:34;;;;;;;57.35;28.10;;;;;;;1.90;56.78;95582.22;4960357;28;20039;-82
2022/01/26 12:07:19;;;;;;;69.50;29.45;;;;;;;1.73;56.98;95579.66;4962500;23;20111;-82
2022/01/26 12:09:45;;;;;;;97.30;41.00;;;;;;;1.63;57.67;95581.56;4961875;28;20055;-82
2022/01/26 12:12:18;;;;;;;55.30;24.60;;;;;;;1.50;58.43;95586.34;4936503;29;20050;-82
2022/01/26 12:14:46;;;;;;;36.63;17.92;;;;;;;1.27;58.57;95587.88;4937035;29;20043;-82
2022/01/26 12:17:24;;;;;;;99.82;40.78;;;;;;;1.16;59.53;95584.66;4940613;29;20048;-81
2022/01/26 12:20:11;;;;;;;68.20;29.95;;;;;;;1.05;59.96;95579.78;4961354;29;20092;-82
2022/01/26 12:36:21;;;;;;;26.40;16.20;;;;;;;1.15;60.18;95572.78;4936396;29;20059;-81
2022/01/26 12:38:55;;;;;;;33.15;18.75;;;;;;;1.06;59.70;95565.22;4936504;29;20771;-81
2022/01/26 12:41:36;;;;;;;21.50;13.93;;;;;;;0.98;60.21;95568.56;4918887;29;20052;-81
2022/01/26 12:44:10;;;;;;;26.88;15.23;;;;;;;0.91;60.23;95549.63;4929300;29;20103;-81
2022/01/26 12:46:36;;;;;;;27.30;14.95;;;;;;;0.92;59.84;95566.59;4938678;29;20467;-81
2022/01/26 12:49:15;;;;;;;25.05;13.32;;;;;;;0.82;60.28;95548.81;4969135;28;20067;-79
2022/01/26 12:51:44;;;;;;;44.42;17.25;;;;;;;0.85;60.54;95551.06;4955754;29;20032;-81
2022/01/26 12:54:10;;;;;;;84.88;23.20;;;;;;;0.80;60.51;95555.81;4949391;29;20047;-80
2022/01/26 12:56:35;;;;;;;65.97;19.67;;;;;;;0.81;60.31;95559.19;4938935;29;20064;-81
2022/01/26 13:01:30;;;;;;;21.13;13.65;;;;;;;0.92;59.90;95561.47;4983792;23;20034;-79
2022/01/26 13:04:00;;;;;;;32.92;21.27;;;;;;;1.04;59.78;95560.25;4968049;29;20027;-79
2022/01/26 13:06:28;;;;;;;42.72;25.63;;;;;;;1.16;59.44;95559.03;4940436;29;20071;-80
2022/01/26 13:09:02;;;;;;;31.90;18.05;;;;;;;1.26;59.20;95564.00;4957359;29;20046;-80
2022/01/26 13:11:35;;;;;;;42.85;24.25;;;;;;;1.33;58.83;95554.75;4951247;29;20062;-79
2022/01/26 13:14:16;;;;;;;;;;;;;;;1.46;58.60;95554.28;4935747;29;20055;-81
2022/01/26 13:16:54;;;;;;;34.58;18.67;;;;;;;1.44;58.54;95540.81;4956405;29;19950;-80
2022/01/26 13:19:37;;;;;;;41.80;22.23;;;;;;;1.54;58.20;95536.38;4954610;29;20020;-79
2022/01/26 13:22:39;;;;;;;22.13;13.82;;;;;;;1.52;57.98;95543.41;4953584;29;20099;-80
2022/01/26 13:25:32;;;;;;;23.40;14.15;;;;;;;1.26;58.86;95543.50;4956151;29;20051;-80
2022/01/26 13:30:57;;;;;;;23.45;14.52;;;;;;;1.09;59.64;95540.09;4940475;29;20043;-79
2022/01/26 13:34:14;;;;;;;29.13;16.50;;;;;;;0.99;60.42;95543.75;4941702;29;20042;-79
2022/01/26 13:45:29;;;;;;;51.83;28.40;;;;;;;1.12;59.90;95546.66;4955687;29;20042;-79
2022/01/26 13:57:50;;;;;;;45.75;25.25;;;;;;;1.39;59.37;95561.00;4952978;29;20107;-79
2022/01/26 14:00:19;;;;;;;46.42;24.85;;;;;;;1.43;59.43;95549.47;4954644;29;20500;-80
2022/01/26 14:02:45;;;;;;;29.60;15.82;;;;;;;1.45;59.14;95557.81;4923223;29;20095;-79